This is the latest recevied weather packets stored in our database for station/object KTPA. If no packets are shown the sender has not sent any weather packets the latest 10 day(s).
| Time | Temp. | Humidity | Pressure | Rain* | Wind** | Luminosity | Snow |
|---|---|---|---|---|---|---|---|
| 1777761822 | 22.78° C | 88% | 1011.2 hPa | 0.51 mm | - | - | - |
| 1777761226 | 22.78° C | 88% | 1011.2 hPa | 0.51 mm | - | - | - |
| 1777760620 | 22.78° C | 88% | 1011.2 hPa | 0.51 mm | - | - | - |
| 1777760024 | 22.78° C | 88% | 1011.2 hPa | 0.51 mm | - | - | - |
| 1777759424 | 22.78° C | 88% | 1011.2 hPa | 0.51 mm | - | - | - |
| 1777758821 | 22.78° C | 83% | 1010.8 hPa | - | - | - | - |
| 1777758220 | 22.78° C | 83% | 1010.8 hPa | - | - | - | - |
| 1777757622 | 22.78° C | 83% | 1010.8 hPa | 0.51 mm | - | - | - |
| 1777757022 | 22.78° C | 83% | 1010.8 hPa | 0.51 mm | - | - | - |
| 1777756425 | 22.78° C | 83% | 1010.8 hPa | 0.51 mm | - | - | - |
| 1777755824 | 22.78° C | 83% | 1010.8 hPa | 0.51 mm | - | - | - |
| 1777755222 | 21.67° C | 94% | 1011.2 hPa | - | - | - | - |
| 1777754623 | 21.67° C | 94% | 1011.2 hPa | - | - | - | - |
| 1777754025 | 21.67° C | 94% | 1011.2 hPa | - | - | - | - |
| 1777753422 | 21.67° C | 94% | 1011.2 hPa | - | - | - | - |
| 1777752825 | 21.67° C | 94% | 1011.2 hPa | - | - | - | - |
| 1777752222 | 21.67° C | 83% | 1010.8 hPa | - | - | - | - |
| 1777751624 | 21.67° C | 83% | 1010.8 hPa | - | - | - | - |
| 1777751023 | 20.56° C | 88% | 1011.9 hPa | - | - | - | - |
| 1777750422 | 22.78° C | 88% | 1012.5 hPa | - | - | - | - |
| 1777749827 | 22.78° C | 88% | 1012.5 hPa | - | - | - | - |
| 1777749222 | 22.78° C | 88% | 1012.5 hPa | - | - | - | - |
| 1777748623 | 26.67° C | 78% | 1011.2 hPa | - | - | - | - |
| 1777748023 | 27.78° C | 74% | 1011.9 hPa | - | - | - | - |
| 1777747421 | 27.78° C | 74% | 1011.9 hPa | - | - | - | - |
* Rain latest hour (hover to see other rain measurements)
** Current wind speed in m/s (hover to see current wind gust speed)